createdAt,value
2022-08-31T00:05:07.875Z,15.60
2022-08-31T00:08:41.215Z,15.53
2022-08-31T00:12:15.095Z,15.50
2022-08-31T00:15:47.936Z,15.49
2022-08-31T00:22:18.085Z,15.53
2022-08-31T00:25:54.204Z,15.42
2022-08-31T00:29:27.673Z,15.36
2022-08-31T00:42:49.509Z,15.40
2022-08-31T00:46:24.760Z,15.27
2022-08-31T00:50:00.144Z,15.22
2022-08-31T01:03:24.588Z,15.19
2022-08-31T01:06:59.735Z,15.17
2022-08-31T01:13:31.774Z,15.22
2022-08-31T01:17:06.140Z,15.11
2022-08-31T01:20:50.344Z,15.06
2022-08-31T01:24:26.493Z,14.96
2022-08-31T01:31:47.429Z,14.88
2022-08-31T01:35:21.674Z,14.86
2022-08-31T01:38:55.517Z,14.81
2022-08-31T01:42:33.263Z,14.78
2022-08-31T01:56:00.536Z,14.61
2022-08-31T01:59:34.195Z,14.48
2022-08-31T02:03:11.974Z,14.49
2022-08-31T02:20:22.043Z,14.40
2022-08-31T02:23:53.740Z,14.34
2022-08-31T02:27:25.005Z,14.28
2022-08-31T02:30:58.314Z,14.25
2022-08-31T02:51:34.715Z,14.34
2022-08-31T02:55:09.752Z,14.28
2022-08-31T02:58:43.615Z,14.29
2022-08-31T03:02:18.236Z,14.17
2022-08-31T03:15:39.802Z,14.12
2022-08-31T03:19:13.792Z,14.01
2022-08-31T03:22:48.336Z,14.01
2022-08-31T03:41:06.093Z,14.02
2022-08-31T03:44:37.104Z,13.96
2022-08-31T03:48:12.299Z,13.96
2022-08-31T03:54:41.379Z,14.07
2022-08-31T03:58:15.646Z,14.02
2022-08-31T04:01:48.121Z,14.04
2022-08-31T04:05:21.905Z,14.05
2022-08-31T04:08:54.384Z,14.08
2022-08-31T04:12:27.254Z,14.10
2022-08-31T04:25:51.952Z,14.20
2022-08-31T04:29:26.604Z,14.18
2022-08-31T04:33:03.872Z,14.17
2022-08-31T04:46:46.914Z,14.48
2022-08-31T04:50:13.016Z,14.40
2022-08-31T04:53:47.814Z,14.43
2022-08-31T04:57:18.826Z,14.45
2022-08-31T05:00:50.364Z,14.45
2022-08-31T05:04:28.734Z,14.50
2022-08-31T05:07:59.535Z,14.57
2022-08-31T05:11:25.103Z,14.60
2022-08-31T05:14:56.086Z,14.71
2022-08-31T05:18:26.696Z,15.00
2022-08-31T05:21:57.512Z,15.26
2022-08-31T05:38:46.634Z,16.09
2022-08-31T05:42:21.555Z,16.10
2022-08-31T05:45:57.274Z,16.20
2022-08-31T05:59:22.608Z,16.47
2022-08-31T06:02:56.724Z,16.53
2022-08-31T06:06:34.324Z,16.57
2022-08-31T06:10:08.234Z,16.70
2022-08-31T06:27:44.527Z,17.08
2022-08-31T06:31:20.890Z,17.21
2022-08-31T06:34:54.499Z,17.24
2022-08-31T06:38:40.808Z,17.12
2022-08-31T06:53:11.584Z,17.32
2022-08-31T06:56:43.705Z,17.46
2022-08-31T07:00:36.944Z,17.40
2022-08-31T07:04:24.485Z,17.55
2022-08-31T07:07:58.354Z,17.77
2022-08-31T07:32:08.054Z,18.65
2022-08-31T07:35:42.234Z,18.67
2022-08-31T07:39:45.249Z,18.72
2022-08-31T08:00:36.731Z,19.73
2022-08-31T08:04:13.565Z,19.91
2022-08-31T08:07:55.167Z,19.90
2022-08-31T08:22:59.025Z,20.32
2022-08-31T08:26:38.784Z,20.63
2022-08-31T08:47:38.312Z,20.78
2022-08-31T08:51:16.834Z,20.70
2022-08-31T08:54:53.019Z,20.74
2022-08-31T08:58:28.135Z,20.87
2022-08-31T09:12:05.494Z,22.15
2022-08-31T09:15:58.158Z,22.07
2022-08-31T09:19:53.714Z,21.99
2022-08-31T09:23:28.474Z,21.88
2022-08-31T09:30:41.722Z,21.56
2022-08-31T09:34:31.235Z,20.92
2022-08-31T09:38:10.625Z,20.84
2022-08-31T09:41:45.753Z,20.86
2022-08-31T10:02:37.675Z,21.47
2022-08-31T10:06:26.531Z,21.49
2022-08-31T10:09:57.524Z,21.23
2022-08-31T10:13:40.039Z,21.23
2022-08-31T10:17:16.854Z,21.24
2022-08-31T10:38:09.885Z,21.74
2022-08-31T10:41:49.167Z,21.74
2022-08-31T10:45:23.783Z,21.75
2022-08-31T10:58:57.961Z,21.44
2022-08-31T11:02:53.407Z,21.71
2022-08-31T11:06:34.799Z,21.91
2022-08-31T11:20:21.716Z,22.42
2022-08-31T11:24:12.113Z,22.02
2022-08-31T11:27:51.638Z,21.89
2022-08-31T11:31:28.816Z,21.96
2022-08-31T11:42:00.113Z,22.78
2022-08-31T11:45:47.262Z,22.71
2022-08-31T11:49:48.545Z,22.98
2022-08-31T12:14:04.946Z,22.47
2022-08-31T12:17:46.725Z,22.19
2022-08-31T12:21:44.518Z,22.07
2022-08-31T12:25:25.865Z,21.99
2022-08-31T12:29:22.122Z,22.08
2022-08-31T12:33:02.408Z,22.26
2022-08-31T12:47:08.874Z,22.93
2022-08-31T12:51:04.095Z,23.26
2022-08-31T12:55:09.446Z,23.57
2022-08-31T12:59:07.278Z,23.64
2022-08-31T13:19:28.028Z,23.14
2022-08-31T13:23:12.220Z,23.17
2022-08-31T13:26:49.586Z,22.99
2022-08-31T13:30:37.940Z,23.19
2022-08-31T13:34:27.576Z,23.37
2022-08-31T13:38:05.566Z,23.38
2022-08-31T13:42:06.915Z,23.39
2022-08-31T13:49:06.794Z,23.02
2022-08-31T13:53:09.509Z,22.70
2022-08-31T14:10:22.887Z,22.37
2022-08-31T14:13:57.576Z,22.21
2022-08-31T14:17:31.213Z,22.14
2022-08-31T14:21:29.319Z,22.11
2022-08-31T14:42:27.888Z,21.69
2022-08-31T14:45:50.927Z,21.55
2022-08-31T14:49:26.502Z,21.59
2022-08-31T14:53:00.687Z,21.50
2022-08-31T14:56:34.174Z,21.35
2022-08-31T15:20:26.963Z,21.18
2022-08-31T15:23:59.925Z,20.97
2022-08-31T15:27:33.346Z,20.93
2022-08-31T15:41:36.525Z,20.80
2022-08-31T15:45:11.924Z,20.61
2022-08-31T16:03:04.134Z,20.50
2022-08-31T16:07:06.907Z,20.32
2022-08-31T16:10:45.974Z,20.20
2022-08-31T16:34:49.425Z,20.04
2022-08-31T16:38:20.961Z,19.85
2022-08-31T16:41:53.163Z,19.67
2022-08-31T16:49:31.584Z,19.53
2022-08-31T16:53:04.894Z,19.18
2022-08-31T16:56:41.604Z,19.12
2022-08-31T17:03:49.084Z,19.00
2022-08-31T17:07:25.146Z,18.83
2022-08-31T17:27:36.454Z,18.66
2022-08-31T17:31:07.708Z,18.45
2022-08-31T17:34:43.553Z,18.39
2022-08-31T17:38:19.173Z,18.26
2022-08-31T17:51:38.432Z,18.21
2022-08-31T17:55:25.468Z,18.07
2022-08-31T17:59:04.857Z,18.01
2022-08-31T18:02:39.820Z,17.93
2022-08-31T18:06:14.246Z,17.80
2022-08-31T18:09:48.497Z,17.73
2022-08-31T18:26:50.453Z,17.86
2022-08-31T18:30:26.390Z,17.72
2022-08-31T18:37:27.480Z,17.66
2022-08-31T18:41:22.451Z,17.51
2022-08-31T18:55:47.671Z,17.35
2022-08-31T18:59:22.528Z,17.22
2022-08-31T19:02:55.391Z,17.17
2022-08-31T19:06:31.958Z,17.09
2022-08-31T19:23:21.849Z,16.86
2022-08-31T19:27:01.101Z,16.65
2022-08-31T19:30:37.323Z,16.51
2022-08-31T19:40:51.650Z,16.43
2022-08-31T19:44:23.410Z,16.21
2022-08-31T19:48:02.430Z,16.09
2022-08-31T19:51:36.273Z,15.96
2022-08-31T20:05:03.609Z,15.89
2022-08-31T20:08:38.743Z,15.75
2022-08-31T20:12:13.851Z,15.69
2022-08-31T20:29:09.378Z,15.45
2022-08-31T20:32:44.570Z,15.28
2022-08-31T20:54:05.522Z,15.09
2022-08-31T20:57:41.306Z,14.95
2022-08-31T21:01:16.498Z,14.89
2022-08-31T21:04:47.579Z,14.87
2022-08-31T21:08:21.311Z,14.86
2022-08-31T21:11:56.833Z,14.82
2022-08-31T21:15:33.721Z,14.81
2022-08-31T21:19:08.591Z,14.80
2022-08-31T21:22:42.261Z,14.79
2022-08-31T21:26:22.031Z,14.79
2022-08-31T21:29:57.078Z,14.75
2022-08-31T21:33:30.689Z,14.70
2022-08-31T21:47:03.407Z,14.83
2022-08-31T21:50:37.771Z,14.77
2022-08-31T21:54:13.899Z,14.74
2022-08-31T22:11:12.681Z,14.72
2022-08-31T22:14:46.741Z,14.61
2022-08-31T22:36:31.052Z,14.48
2022-08-31T22:40:05.939Z,14.34
2022-08-31T22:43:42.180Z,14.30
2022-08-31T23:04:20.798Z,14.19
2022-08-31T23:07:55.212Z,14.07
2022-08-31T23:11:29.041Z,14.02
2022-08-31T23:15:04.371Z,13.94
2022-08-31T23:18:37.752Z,13.90
2022-08-31T23:22:15.465Z,13.88
2022-08-31T23:25:50.841Z,13.86
2022-08-31T23:29:24.796Z,13.84
2022-08-31T23:46:12.898Z,13.81
2022-08-31T23:49:51.569Z,13.70
2022-08-31T23:53:28.661Z,13.61
2022-08-31T23:57:02.603Z,13.60
